Terminal Aerodrome Forecast
Issued by NWS

Home | Current Version | Previous Version | Text Only | Print | Product List | Glossary Off
Versions: 1 2 3 4 5 6 7 8 9 10 11 12 13 14 15 16 17

000
FTUS43 KTOP 181600 AAA
TAFMHK
TAF AMD
KMHK 181603Z 1816/1912 04005KT P6SM BKN016
     FM181800 05004KT P6SM SCT025
     FM190200 14004KT P6SM SKC=

USA.gov is the U.S. government's official web portal to all federal, state and local government web resources and services.